sensor_id;sensor_type;location;lat;lon;timestamp;temperature;humidity
19864;DHT22;10094;48.820;9.226;2022-08-04T00:11:08;23.50;95.70
19864;DHT22;10094;48.820;9.226;2022-08-04T00:18:03;23.40;95.60
19864;DHT22;10094;48.820;9.226;2022-08-04T00:24:46;23.40;95.50
19864;DHT22;10094;48.820;9.226;2022-08-04T00:31:29;23.30;96.50
19864;DHT22;10094;48.820;9.226;2022-08-04T00:38:32;23.10;97.40
19864;DHT22;10094;48.820;9.226;2022-08-04T01:06:40;22.90;98.40
19864;DHT22;10094;48.820;9.226;2022-08-04T01:20:31;22.80;97.50
19864;DHT22;10094;48.820;9.226;2022-08-04T01:34:45;22.50;99.90
19864;DHT22;10094;48.820;9.226;2022-08-04T01:41:31;22.50;98.30
19864;DHT22;10094;48.820;9.226;2022-08-04T01:48:14;22.50;99.90
19864;DHT22;10094;48.820;9.226;2022-08-04T01:54:58;22.40;99.90
19864;DHT22;10094;48.820;9.226;2022-08-04T02:01:42;22.40;99.30
19864;DHT22;10094;48.820;9.226;2022-08-04T02:08:34;22.40;99.30
19864;DHT22;10094;48.820;9.226;2022-08-04T02:15:39;22.40;98.10
19864;DHT22;10094;48.820;9.226;2022-08-04T02:22:24;22.50;97.40
19864;DHT22;10094;48.820;9.226;2022-08-04T02:36:34;22.50;96.90
19864;DHT22;10094;48.820;9.226;2022-08-04T02:43:18;22.50;96.60
19864;DHT22;10094;48.820;9.226;2022-08-04T02:50:21;22.50;96.30
19864;DHT22;10094;48.820;9.226;2022-08-04T02:57:12;22.40;96.60
19864;DHT22;10094;48.820;9.226;2022-08-04T03:11:12;22.40;96.80
19864;DHT22;10094;48.820;9.226;2022-08-04T03:54:33;21.80;99.90
19864;DHT22;10094;48.820;9.226;2022-08-04T04:02:01;21.60;99.90
19864;DHT22;10094;48.820;9.226;2022-08-04T04:23:17;21.50;99.90
19864;DHT22;10094;48.820;9.226;2022-08-04T04:43:56;21.80;99.80
19864;DHT22;10094;48.820;9.226;2022-08-04T04:57:44;21.90;98.50
19864;DHT22;10094;48.820;9.226;2022-08-04T05:26:12;22.50;99.90
19864;DHT22;10094;48.820;9.226;2022-08-04T05:33:03;26.80;92.80
19864;DHT22;10094;48.820;9.226;2022-08-04T05:39:55;29.40;90.00
19864;DHT22;10094;48.820;9.226;2022-08-04T05:46:38;30.80;88.20
19864;DHT22;10094;48.820;9.226;2022-08-04T05:53:22;31.10;86.20
19864;DHT22;10094;48.820;9.226;2022-08-04T06:00:05;32.20;84.30
19864;DHT22;10094;48.820;9.226;2022-08-04T06:07:09;33.20;82.50
19864;DHT22;10094;48.820;9.226;2022-08-04T06:13:57;34.70;79.10
19864;DHT22;10094;48.820;9.226;2022-08-04T06:20:42;35.10;78.00
19864;DHT22;10094;48.820;9.226;2022-08-04T06:27:32;35.50;75.10
19864;DHT22;10094;48.820;9.226;2022-08-04T06:34:15;37.00;73.70
19864;DHT22;10094;48.820;9.226;2022-08-04T06:40:58;37.90;71.80
19864;DHT22;10094;48.820;9.226;2022-08-04T06:47:45;37.50;69.80
19864;DHT22;10094;48.820;9.226;2022-08-04T06:54:28;37.70;69.60
19864;DHT22;10094;48.820;9.226;2022-08-04T07:01:17;37.90;68.50
19864;DHT22;10094;48.820;9.226;2022-08-04T07:08:01;37.00;68.70
19864;DHT22;10094;48.820;9.226;2022-08-04T07:14:43;38.20;68.70
19864;DHT22;10094;48.820;9.226;2022-08-04T07:21:26;39.30;67.30
19864;DHT22;10094;48.820;9.226;2022-08-04T07:28:09;39.50;66.40
19864;DHT22;10094;48.820;9.226;2022-08-04T07:34:51;40.80;65.90
19864;DHT22;10094;48.820;9.226;2022-08-04T07:41:37;41.20;64.50
19864;DHT22;10094;48.820;9.226;2022-08-04T07:48:20;41.10;63.60
19864;DHT22;10094;48.820;9.226;2022-08-04T07:55:06;40.40;63.20
19864;DHT22;10094;48.820;9.226;2022-08-04T08:09:13;42.30;62.70
19864;DHT22;10094;48.820;9.226;2022-08-04T08:15:56;41.80;60.90
19864;DHT22;10094;48.820;9.226;2022-08-04T08:22:39;41.40;61.50
19864;DHT22;10094;48.820;9.226;2022-08-04T08:29:23;41.40;60.60
19864;DHT22;10094;48.820;9.226;2022-08-04T08:43:26;42.20;59.80
19864;DHT22;10094;48.820;9.226;2022-08-04T08:51:00;44.40;57.50
19864;DHT22;10094;48.820;9.226;2022-08-04T08:58:02;44.30;57.30
19864;DHT22;10094;48.820;9.226;2022-08-04T09:12:11;43.50;57.80
19864;DHT22;10094;48.820;9.226;2022-08-04T09:19:09;45.50;56.70
19864;DHT22;10094;48.820;9.226;2022-08-04T09:47:46;46.00;55.10
19864;DHT22;10094;48.820;9.226;2022-08-04T10:01:29;45.80;54.50
19864;DHT22;10094;48.820;9.226;2022-08-04T10:09:16;44.50;53.90
19864;DHT22;10094;48.820;9.226;2022-08-04T10:15:59;44.20;52.90
19864;DHT22;10094;48.820;9.226;2022-08-04T10:30:09;45.40;51.50
19864;DHT22;10094;48.820;9.226;2022-08-04T10:52:01;44.70;49.90
19864;DHT22;10094;48.820;9.226;2022-08-04T10:58:49;43.30;49.00
19864;DHT22;10094;48.820;9.226;2022-08-04T11:12:32;39.40;50.60
19864;DHT22;10094;48.820;9.226;2022-08-04T11:19:37;39.30;51.40
19864;DHT22;10094;48.820;9.226;2022-08-04T11:26:51;38.40;51.20
19864;DHT22;10094;48.820;9.226;2022-08-04T11:33:47;38.40;52.60
19864;DHT22;10094;48.820;9.226;2022-08-04T11:40:42;37.90;52.70
19864;DHT22;10094;48.820;9.226;2022-08-04T11:48:06;37.50;53.80
19864;DHT22;10094;48.820;9.226;2022-08-04T11:54:50;37.40;53.60
19864;DHT22;10094;48.820;9.226;2022-08-04T12:15:56;37.00;54.00
19864;DHT22;10094;48.820;9.226;2022-08-04T12:22:48;37.00;54.20
19864;DHT22;10094;48.820;9.226;2022-08-04T12:29:33;37.40;54.20
19864;DHT22;10094;48.820;9.226;2022-08-04T12:43:14;37.30;53.80
19864;DHT22;10094;48.820;9.226;2022-08-04T12:50:00;37.60;53.70
19864;DHT22;10094;48.820;9.226;2022-08-04T12:56:47;37.80;53.30
19864;DHT22;10094;48.820;9.226;2022-08-04T13:03:42;37.60;53.90
19864;DHT22;10094;48.820;9.226;2022-08-04T13:10:26;37.70;53.70
19864;DHT22;10094;48.820;9.226;2022-08-04T13:17:12;37.80;53.80
19864;DHT22;10094;48.820;9.226;2022-08-04T13:23:57;37.80;53.20
19864;DHT22;10094;48.820;9.226;2022-08-04T13:31:06;37.80;53.20
19864;DHT22;10094;48.820;9.226;2022-08-04T13:37:49;37.10;54.40
19864;DHT22;10094;48.820;9.226;2022-08-04T13:44:36;37.30;53.90
19864;DHT22;10094;48.820;9.226;2022-08-04T13:51:21;36.90;53.60
19864;DHT22;10094;48.820;9.226;2022-08-04T13:58:25;37.00;54.20
19864;DHT22;10094;48.820;9.226;2022-08-04T14:05:18;37.10;53.60
19864;DHT22;10094;48.820;9.226;2022-08-04T14:12:10;37.30;54.20
19864;DHT22;10094;48.820;9.226;2022-08-04T14:19:13;37.80;53.90
19864;DHT22;10094;48.820;9.226;2022-08-04T14:25:56;38.00;53.90
19864;DHT22;10094;48.820;9.226;2022-08-04T14:33:00;37.40;53.90
19864;DHT22;10094;48.820;9.226;2022-08-04T14:40:03;37.10;53.90
19864;DHT22;10094;48.820;9.226;2022-08-04T14:47:06;37.10;54.20
19864;DHT22;10094;48.820;9.226;2022-08-04T14:53:54;37.20;53.70
19864;DHT22;10094;48.820;9.226;2022-08-04T15:00:37;37.20;53.80
19864;DHT22;10094;48.820;9.226;2022-08-04T15:07:19;37.50;54.20
19864;DHT22;10094;48.820;9.226;2022-08-04T15:14:02;37.30;54.00
19864;DHT22;10094;48.820;9.226;2022-08-04T15:20:45;37.10;54.10
19864;DHT22;10094;48.820;9.226;2022-08-04T15:27:32;37.40;53.70
19864;DHT22;10094;48.820;9.226;2022-08-04T15:34:16;37.20;53.60
19864;DHT22;10094;48.820;9.226;2022-08-04T15:41:04;37.20;53.70
19864;DHT22;10094;48.820;9.226;2022-08-04T15:54:45;37.00;53.70
19864;DHT22;10094;48.820;9.226;2022-08-04T16:01:34;37.10;54.30
19864;DHT22;10094;48.820;9.226;2022-08-04T16:08:17;37.00;53.90
19864;DHT22;10094;48.820;9.226;2022-08-04T16:15:35;36.90;53.60
19864;DHT22;10094;48.820;9.226;2022-08-04T16:22:39;37.20;53.50
19864;DHT22;10094;48.820;9.226;2022-08-04T16:36:08;37.10;54.20
19864;DHT22;10094;48.820;9.226;2022-08-04T16:43:01;37.10;54.10
19864;DHT22;10094;48.820;9.226;2022-08-04T16:49:45;37.10;54.20
19864;DHT22;10094;48.820;9.226;2022-08-04T16:56:34;36.90;54.10
19864;DHT22;10094;48.820;9.226;2022-08-04T17:03:17;36.80;53.90
19864;DHT22;10094;48.820;9.226;2022-08-04T17:09:59;36.70;54.10
19864;DHT22;10094;48.820;9.226;2022-08-04T17:16:42;36.60;54.40
19864;DHT22;10094;48.820;9.226;2022-08-04T17:23:39;36.50;54.70
19864;DHT22;10094;48.820;9.226;2022-08-04T17:30:42;36.50;55.00
19864;DHT22;10094;48.820;9.226;2022-08-04T17:37:45;36.30;55.10
19864;DHT22;10094;48.820;9.226;2022-08-04T17:44:35;36.20;55.00
19864;DHT22;10094;48.820;9.226;2022-08-04T17:51:18;36.00;55.20
19864;DHT22;10094;48.820;9.226;2022-08-04T17:58:22;35.90;55.70
19864;DHT22;10094;48.820;9.226;2022-08-04T18:05:04;35.80;55.60
19864;DHT22;10094;48.820;9.226;2022-08-04T18:12:03;35.60;55.60
19864;DHT22;10094;48.820;9.226;2022-08-04T18:19:13;35.50;56.40
19864;DHT22;10094;48.820;9.226;2022-08-04T18:25:56;35.20;58.70
19864;DHT22;10094;48.820;9.226;2022-08-04T18:32:40;34.80;60.20
19864;DHT22;10094;48.820;9.226;2022-08-04T18:39:42;34.30;61.40
19864;DHT22;10094;48.820;9.226;2022-08-04T18:46:45;33.90;61.70
19864;DHT22;10094;48.820;9.226;2022-08-04T18:53:36;33.40;62.60
19864;DHT22;10094;48.820;9.226;2022-08-04T19:00:25;33.00;63.20
19864;DHT22;10094;48.820;9.226;2022-08-04T19:07:09;32.50;63.50
19864;DHT22;10094;48.820;9.226;2022-08-04T19:14:11;32.30;63.20
19864;DHT22;10094;48.820;9.226;2022-08-04T19:20:55;32.10;64.20
19864;DHT22;10094;48.820;9.226;2022-08-04T19:27:37;31.50;64.80
19864;DHT22;10094;48.820;9.226;2022-08-04T19:34:22;31.00;65.60
19864;DHT22;10094;48.820;9.226;2022-08-04T19:41:16;31.00;66.10
19864;DHT22;10094;48.820;9.226;2022-08-04T19:47:59;30.90;67.40
19864;DHT22;10094;48.820;9.226;2022-08-04T19:54:59;30.60;67.40
19864;DHT22;10094;48.820;9.226;2022-08-04T20:01:51;30.40;67.90
19864;DHT22;10094;48.820;9.226;2022-08-04T20:08:36;30.30;68.50
19864;DHT22;10094;48.820;9.226;2022-08-04T20:15:29;30.10;69.20
19864;DHT22;10094;48.820;9.226;2022-08-04T20:22:14;29.90;70.10
19864;DHT22;10094;48.820;9.226;2022-08-04T20:29:20;29.80;71.20
19864;DHT22;10094;48.820;9.226;2022-08-04T20:36:22;29.50;70.80
19864;DHT22;10094;48.820;9.226;2022-08-04T20:43:04;29.50;70.80
19864;DHT22;10094;48.820;9.226;2022-08-04T20:49:50;29.30;71.50
19864;DHT22;10094;48.820;9.226;2022-08-04T20:56:34;28.80;75.70
19864;DHT22;10094;48.820;9.226;2022-08-04T21:03:17;28.60;76.60
19864;DHT22;10094;48.820;9.226;2022-08-04T21:09:59;28.60;79.80
19864;DHT22;10094;48.820;9.226;2022-08-04T21:16:43;28.50;80.10
19864;DHT22;10094;48.820;9.226;2022-08-04T21:23:37;28.30;81.80
19864;DHT22;10094;48.820;9.226;2022-08-04T21:30:23;28.20;82.00
19864;DHT22;10094;48.820;9.226;2022-08-04T21:37:08;28.20;82.40
19864;DHT22;10094;48.820;9.226;2022-08-04T21:43:52;28.00;84.30
19864;DHT22;10094;48.820;9.226;2022-08-04T21:50:35;27.90;86.20
19864;DHT22;10094;48.820;9.226;2022-08-04T21:57:18;27.70;87.50
19864;DHT22;10094;48.820;9.226;2022-08-04T22:04:06;27.60;88.60
19864;DHT22;10094;48.820;9.226;2022-08-04T22:10:49;27.50;89.80
19864;DHT22;10094;48.820;9.226;2022-08-04T22:17:32;27.40;89.20
19864;DHT22;10094;48.820;9.226;2022-08-04T22:24:17;27.30;91.50
19864;DHT22;10094;48.820;9.226;2022-08-04T22:31:03;27.10;92.00
19864;DHT22;10094;48.820;9.226;2022-08-04T22:38:05;27.00;91.60
19864;DHT22;10094;48.820;9.226;2022-08-04T22:45:08;26.70;91.70
19864;DHT22;10094;48.820;9.226;2022-08-04T22:51:52;26.60;92.90
19864;DHT22;10094;48.820;9.226;2022-08-04T22:58:35;26.20;94.60
19864;DHT22;10094;48.820;9.226;2022-08-04T23:05:21;25.90;94.90
19864;DHT22;10094;48.820;9.226;2022-08-04T23:12:10;26.00;95.30
19864;DHT22;10094;48.820;9.226;2022-08-04T23:19:09;26.00;94.50
19864;DHT22;10094;48.820;9.226;2022-08-04T23:25:56;26.00;94.90
19864;DHT22;10094;48.820;9.226;2022-08-04T23:32:52;25.80;96.30
19864;DHT22;10094;48.820;9.226;2022-08-04T23:39:35;25.40;97.40
19864;DHT22;10094;48.820;9.226;2022-08-04T23:46:37;25.20;97.90
19864;DHT22;10094;48.820;9.226;2022-08-04T23:53:20;25.10;98.30
